This is the latest recevied weather packets stored in our database for station/object OE7DRT-13. If no packets are shown the sender has not sent any weather packets the latest 10 day(s).
| Time | Temp. | Humidity | Pressure | Rain* | Wind** | Luminosity | Snow |
|---|---|---|---|---|---|---|---|
| 1777728026 | 22.78° C | 27% | 1020.6 hPa | 0 mm | - | - | - |
| 1777726820 | 23.33° C | 27% | 1020.9 hPa | 0 mm | - | - | - |
| 1777726517 | 22.78° C | 26% | 1020.8 hPa | 0 mm | - | - | - |
| 1777725934 | 22.22° C | 26% | 1021.1 hPa | 0 mm | - | - | - |
| 1777722051 | 20.56° C | 27% | 1021.7 hPa | 0 mm | - | - | - |
| 1777721448 | 20.56° C | 26% | 1021.9 hPa | 0 mm | - | - | - |
| 1777719336 | 19.44° C | 32% | 1022.4 hPa | 0 mm | - | - | - |
| 1777718131 | 18.89° C | 33% | 1022.9 hPa | 0 mm | - | - | - |
| 1777716036 | 17.22° C | 35% | 1023.5 hPa | 0 mm | - | - | - |
| 1777714226 | 16.11° C | 34% | 1023.8 hPa | 0 mm | - | - | - |
| 1777711531 | 13.33° C | 43% | 1024.3 hPa | 0 mm | - | - | - |
| 1777709420 | 11.11° C | 51% | 1024.6 hPa | 0 mm | - | - | - |
| 1777709118 | 10.56° C | 52% | 1024.7 hPa | 0 mm | - | - | - |
| 1777707328 | 8.89° C | 61% | 1025.1 hPa | 0 mm | - | - | - |
| 1777707026 | 8.33° C | 64% | 1025.1 hPa | 0 mm | - | - | - |
| 1777703728 | 4.44° C | 77% | 1025.5 hPa | 0 mm | - | - | - |
| 1777703426 | 4.44° C | 78% | 1025.6 hPa | 0 mm | - | - | - |
| 1777701918 | 4.44° C | 80% | 1025.7 hPa | 0 mm | - | - | - |
| 1777701617 | 3.89° C | 79% | 1025.7 hPa | 0 mm | - | - | - |
| 1777701336 | 3.89° C | 81% | 1025.8 hPa | 0 mm | - | - | - |
| 1777700129 | 3.33° C | 81% | 1025.8 hPa | 0 mm | - | - | - |
| 1777696228 | 3.89° C | 77% | 1025.6 hPa | 0 mm | - | - | - |
| 1777695021 | 3.89° C | 78% | 1025.7 hPa | 0 mm | - | - | - |
| 1777692327 | 4.44° C | 75% | 1025.6 hPa | 0 mm | - | - | - |
| 1777685128 | 5° C | 76% | 1026 hPa | 0 mm | - | - | - |
* Rain latest hour (hover to see other rain measurements)
** Current wind speed in m/s (hover to see current wind gust speed)